21kousinmaru — JD2168 — position and weather

sailwx.info

Track history (hours):
 
Tides and Currents Weather Stations Pressure Air Temp Water Temp Dewpoint Dewpoint Depression Visibility Wind Speed Wind Dir Waves Ship Positions

21kousinmaru

Last reported at 2017-Sep-21 16:46 UTC. Time now 2017-Sep-23 09:20 UTC.
Position N 35°29' E 139°54'.

Length 68 m; draft 4.5 m.

MMSI: 431501835.

Date/timePositionNaut miles runAvg speedWind from/ knotsBaromVisibWave heightAir tempDewpointWater temp
2017-Sep-21 16:46N 35°29' E 139°54'0 0.0
2017-Sep-21 15:19N 35°29' E 139°54'0 0.0
2017-Sep-21 14:58N 35°29' E 139°54'0 0.0
2017-Sep-21 14:28N 35°29' E 139°54'0 0.0
2017-Sep-21 11:31N 35°29' E 139°54'0 0.0
2017-Sep-21 11:30N 35°29' E 139°54'510.6
2017-Sep-21 11:00N 35°26' E 139°48'612.0
2017-Sep-21 10:30N 35°21' E 139°45'510.7
2017-Sep-21 10:00N 35°16' E 139°47'612.1
2017-Sep-21 09:30N 35°10' E 139°46'613.0
2017-Sep-21 09:00N 35°04' E 139°43'713.2
2017-Sep-21 08:30N 34°59' E 139°37'230 8.7
2017-Sep-20 05:54N 34°07' E 135°04'2 0.1
2017-Sep-19 13:11N 34°07' E 135°07'210.6
2017-Sep-19 13:00N 34°08' E 135°05'4 0.1
2017-Sep-18 08:39N 34°08' E 135°00'212.8
2017-Sep-18 08:30N 34°08' E 135°02'5 0.7
2017-Sep-18 01:41N 34°07' E 135°08'0 2.0
2017-Sep-18 01:26N 34°07' E 135°07'612.1
2017-Sep-18 00:55N 34°08' E 134°60'  
Track history (hours):
 
Tides and Currents Weather Stations Pressure Air Temp Water Temp Dewpoint Dewpoint Depression Visibility Wind Speed Wind Dir Waves Ship Positions

21kousinmaru

Last reported at 2017-Sep-21 16:46 UTC. Time now 2017-Sep-23 09:20 UTC.
Position N 35°29' E 139°54'.

Length 68 m; draft 4.5 m.

MMSI: 431501835.

Date/timePositionNaut miles runAvg speedWind from/ knotsBaromVisibWave heightAir tempDewpointWater temp
2017-Sep-21 16:46N 35°29' E 139°54'0 0.0
2017-Sep-21 15:19N 35°29' E 139°54'0 0.0
2017-Sep-21 14:58N 35°29' E 139°54'0 0.0
2017-Sep-21 14:28N 35°29' E 139°54'0 0.0
2017-Sep-21 11:31N 35°29' E 139°54'0 0.0
2017-Sep-21 11:30N 35°29' E 139°54'510.6
2017-Sep-21 11:00N 35°26' E 139°48'612.0
2017-Sep-21 10:30N 35°21' E 139°45'510.7
2017-Sep-21 10:00N 35°16' E 139°47'612.1
2017-Sep-21 09:30N 35°10' E 139°46'613.0
2017-Sep-21 09:00N 35°04' E 139°43'713.2
2017-Sep-21 08:30N 34°59' E 139°37'230 8.7
2017-Sep-20 05:54N 34°07' E 135°04'2 0.1
2017-Sep-19 13:11N 34°07' E 135°07'210.6
2017-Sep-19 13:00N 34°08' E 135°05'4 0.1
2017-Sep-18 08:39N 34°08' E 135°00'212.8
2017-Sep-18 08:30N 34°08' E 135°02'5 0.7
2017-Sep-18 01:41N 34°07' E 135°08'0 2.0
2017-Sep-18 01:26N 34°07' E 135°07'612.1
2017-Sep-18 00:55N 34°08' E 134°60'  

Dump ship's entire track history